Tiempo atmosférico en la estación meteorológica de Agüimes, Las Palmas (306 m.)



Fecha
DESCASC
Temp. máxima en grados centígrados (hora)
DESCASC
Temp. mínima en grados centígrados (hora)
DESCASC
Temp. media en grados centígrados
DESCASC
Racha de viento máxima en m/sg (hora)
DESCASC
Velocidad máxima media en intervalos de 10 minutos(hora)
DESCASC
Precipitaciones diarias en mm
DESCASC
Precipitaciones de 00:00 a 06:00 en mm
DESCASC
Precipitaciones de 06:00 a 12:00 en mm
DESCASC
Precipitaciones de 12:00 a 18:00 en mm
DESCASC
Precipitaciones de 18:00 a 24:00 en mm
DESCASC
21-02-2019 21.4 (16:10) 11.3 (03:10) 16.3 7.78 (13:40) 4.72 (16:30) 0 0 0 0 0
20-02-2019 20.2 (14:10) 12.4 (23:59) 16.3 9.17 (10:30) 6.11 (00:30) 0 0 0 0 0
19-02-2019 18.6 (13:20) 12.5 (07:10) 15.6 15.28 (15:00) 11.11 (15:00) 0 0 0 0 0
18-02-2019 19.5 (10:20) 12.7 (23:59) 16.1 13.06 (11:40) 9.72 (11:40) 4 0 0.2 3.8 0
17-02-2019 22.5 (14:00) 15.3 (00:00) 18.9 11.94 (12:00) 7.78 (15:40) 0 0 0 0 0
16-02-2019 21.5 (14:40) 12.1 (00:00) 16.8 14.72 (14:10) 8.33 (23:40) 0 0 0 0 0
15-02-2019 21.7 (00:00) 13.9 (00:00) 17.8 13.61 (22:40) 8.06 (22:40) 0.4 0 0 0.2 0.2
14-02-2019 24.4 (13:40) 16.6 (00:00) 20.5 14.72 (13:10) 10.28 (16:30) 0 0 0 0 0
13-02-2019 26.7 (16:10) 15.4 (00:00) 21.1 10.56 (16:20) 7.78 (16:10) 0 0 0 0 0
12-02-2019 25.3 (14:40) 17.8 (00:00) 21.5 5.83 (08:20) 3.89 (06:30) 0 0 0 0 0
11-02-2019 26 (15:40) 16.3 (00:00) 21.1 9.17 (02:00) 4.72 (01:40) 0 0 0 0 0
10-02-2019 24.2 (15:10) 15.2 (00:00) 19.7 10.28 (03:50) 6.67 (03:50) 0 0 0 0 0
09-02-2019 21.9 (15:20) 11.9 (00:00) 16.9 10.28 (02:20) 7.22 (02:50) 0 0 0 0 0
08-02-2019 19.3 (14:30) 12 (00:00) 15.6 12.5 (09:20) 8.61 (11:30) 0 0 0 0 0
07-02-2019 20.1 (14:20) 13.6 (00:00) 16.9 12.78 (13:30) 8.89 (12:50) 0 0 0 0 0
06-02-2019 22.3 (13:40) 14.9 (00:00) 18.6 10.56 (23:30) 7.22 (23:30) 0 0 0 0 0
05-02-2019 21.5 (13:10) 15.7 (00:00) 18.6 8.89 (14:10) 5.28 (23:50) 0 0 0 0 0
04-02-2019 22.7 (14:10) 13.2 (00:00) 18 19.44 (00:10) 11.94 (00:10) 0 0 0 0 0
03-02-2019 18.2 (14:00) 13.4 (00:00) 15.8 21.67 (14:50) 15 (14:50) 0 0 0 0 0
02-02-2019 18.3 (13:40) 13 (00:00) 15.6 20.83 (17:40) 13.89 (17:40) -- -- -- 0 0
01-02-2019 21.2 (13:00) 12.1 (00:00) 16.7 9.72 (03:20) 5.28 (00:20) 0 0 0 0 0
31-01-2019 20.1 (14:40) 13.2 (00:00) 16.7 14.44 (00:10) 10.83 (00:10) 0 0 0 0 0
30-01-2019 19.5 (13:20) 13.6 (00:00) 16.6 16.94 (12:00) 11.94 (04:30) 0 0 0 0 0
29-01-2019 19.5 (14:10) 13.4 (00:00) 16.4 17.5 (17:00) 11.67 (12:20) 0 0 0 0 0
28-01-2019 19.3 (14:00) 13.9 (00:00) 16.6 20 (17:30) 13.61 (17:50) 0 0 0 0 0
27-01-2019 20.5 (13:30) 11.9 (00:00) 16.2 13.06 (15:20) 8.89 (15:00) 0 0 0 0 0
26-01-2019 20.1 (11:20) 11.4 (00:00) 15.8 8.89 (15:40) 5.56 (15:40) 0 0 0 0 0
25-01-2019 20.6 (13:00) 13.3 (00:00) 17 8.89 (14:00) 5.83 (14:00) 0 0 0 0 0
24-01-2019 20 (13:50) 12.8 (00:00) 16.4 14.17 (14:30) 10 (15:00) 0 0 0 0 0

Gráficas

Temp. máximas Temp. mínimas Temp. medias Precipitaciones Rachas de viento máximas Velocidades máximas media en intervalos de 10 minutos

Datos horarios

Fecha y hora oficial Temperatura (ºC) Velocidad del viento (km/h) Dirección del viento Racha (km/h) Dirección de racha Precipitación (mm) Presión (hPa) Tendencia (hPa) Humedad (%)
2019-02-22 23:00:00 19.2 5 Norte 12 Norte 0 -- -- 20
2019-02-22 22:00:00 20 3 Noroeste 10 Oeste 0 -- -- 19
2019-02-22 21:00:00 20.6 7 Oeste 13 Oeste 0 -- -- 19
2019-02-22 20:00:00 20.6 8 Oeste 15 Sudoeste 0 -- -- 20
2019-02-22 19:00:00 22.5 9 Sudoeste 24 Sudoeste 0 -- -- 18
2019-02-22 18:00:00 23.9 18 Sudoeste 36 Sur 0 -- -- 18
2019-02-22 17:00:00 24.5 21 Sur 39 Sur 0 -- -- 19
2019-02-22 16:00:00 24.9 24 Sur 37 Sur 0 -- -- 20
2019-02-22 15:00:00 25.1 26 Sur 39 Sur 0 -- -- 22
2019-02-22 14:00:00 25.4 24 Sur 48 Sudoeste 0 -- -- 24
2019-02-22 13:00:00 25 23 Sur 38 Sur 0 -- -- 24
2019-02-22 12:00:00 24.9 26 Sur 41 Sur 0 -- -- 23
2019-02-22 11:00:00 23.5 15 Sur 21 Sur 0 -- -- 31
2019-02-22 10:00:00 21.8 3 Sur 9 Sur 0 -- -- 39
2019-02-22 09:00:00 18.5 2 Nordeste 9 Norte 0 -- -- 36
2019-02-22 08:00:00 15.2 5 Norte 8 Norte 0 -- -- 41
2019-02-22 07:00:00 16.2 4 Nordeste 15 Norte 0 -- -- 34
2019-02-22 06:00:00 16 6 Noroeste 15 Noroeste 0 -- -- 33
2019-02-22 05:00:00 15.1 7 Norte 11 Norte 0 -- -- 41
2019-02-22 04:00:00 14.6 7 Norte 13 Nordeste 0 -- -- 41
2019-02-22 03:00:00 15.8 2 Noroeste 12 Nordeste 0 -- -- 34
2019-02-22 02:00:00 14.8 8 Norte 15 Norte 0 -- -- 47
2019-02-22 01:00:00 14.9 10 Norte 15 Noroeste 0 -- -- 53
2019-02-22 00:00:00 13.8 11 Nordeste 15 Nordeste 0 -- -- 79
2019-02-21 23:00:00 16.5 9 Nordeste 18 Oeste 0 -- -- 39
2019-02-21 22:00:00 18 10 Oeste 19 Oeste 0 -- -- 25
2019-02-21 21:00:00 17.3 12 Oeste 18 Oeste 0 -- -- 27
2019-02-21 20:00:00 16.9 4 Oeste 9 Oeste 0 -- -- 45
2019-02-21 19:00:00 17.6 5 Sur 15 Sur 0 -- -- 47
2019-02-21 18:00:00 19.1 12 Sur 23 Sur 0 -- -- 45
2019-02-21 17:00:00 20.8 16 Sur 27 Sudeste 0 -- -- 43
2019-02-21 16:00:00 21.3 15 Sudeste 26 Sur 0 -- -- 44
2019-02-21 15:00:00 20.8 15 Sur 24 Sur 0 -- -- 47
2019-02-21 14:00:00 20 15 Sudeste 28 Sudeste 0 -- -- 56
2019-02-21 13:00:00 19.7 14 Sur 27 Sudeste 0 -- -- 58
2019-02-21 12:00:00 18.8 13 Sudeste 24 Sur 0 -- -- 61
2019-02-21 11:00:00 16.6 13 Sudeste 20 Sur 0 -- -- 75
2019-02-21 10:00:00 16 6 Sudeste 15 Sur 0 -- -- 79
2019-02-21 09:00:00 14.7 5 Sudoeste 11 Sudoeste 0 -- -- 84
2019-02-21 08:00:00 13.4 5 Oeste 9 Oeste 0 -- -- 86
2019-02-21 07:00:00 13 5 Oeste 6 Oeste 0 -- -- 87
2019-02-21 06:00:00 12.8 2 Oeste 6 Noroeste 0 -- -- 89
2019-02-21 05:00:00 12.2 0 Calma 9 Noroeste 0 -- -- 90
2019-02-21 04:00:00 11.6 8 Norte 9 Noroeste 0 -- -- 85
2019-02-21 03:00:00 11.4 4 Norte 12 Norte 0 -- -- 78
2019-02-21 02:00:00 12 12 Norte 17 Norte 0 -- -- 74
2019-02-21 01:00:00 12.9 11 Norte 19 Norte 0 -- -- 73
2019-02-21 00:00:00 12.4 9 Nordeste 17 Norte 0 -- -- 74
2019-02-20 23:00:00 13.4 14 Norte 22 Norte 0 -- -- 80
2019-02-20 22:00:00 13.5 12 Norte 17 Norte 0 -- -- 82
2019-02-20 21:00:00 14 12 Nordeste 17 Nordeste 0 -- -- 80
2019-02-20 20:00:00 15.1 11 Nordeste 16 Nordeste 0 -- -- 75
2019-02-20 19:00:00 15.5 6 Nordeste 16 Este 0 -- -- 71
2019-02-20 18:00:00 16.2 9 Nordeste 17 Nordeste 0 -- -- 69
2019-02-20 17:00:00 16.7 8 Nordeste 16 Este 0 -- -- 69
2019-02-20 16:00:00 17.3 10 Este 22 Este 0 -- -- 61
2019-02-20 15:00:00 18.9 12 Este 26 Este 0 -- -- 52
2019-02-20 14:00:00 19.8 13 Nordeste 28 Este 0 -- -- 46
2019-02-20 13:00:00 19.2 14 Este 26 Este 0 -- -- 47
2019-02-20 12:00:00 19.3 12 Nordeste 25 Nordeste 0 -- -- 46
2019-02-20 11:00:00 17.5 15 Norte 33 Norte 0 -- -- 51
2019-02-20 10:00:00 15.4 18 Norte 30 Norte 0 -- -- 58
2019-02-20 09:00:00 14.3 17 Norte 27 Noroeste 0 -- -- 62
2019-02-20 08:00:00 13.6 15 Norte 24 Norte 0 -- -- 61
2019-02-20 07:00:00 13.3 15 Norte 24 Norte 0 -- -- 60
2019-02-20 06:00:00 12.7 13 Norte 30 Norte 0 -- -- 61
2019-02-20 05:00:00 13.1 15 Norte 24 Norte 0 -- -- 65
2019-02-20 04:00:00 13.5 14 Norte 25 Norte 0 -- -- 64
2019-02-20 03:00:00 13.7 14 Norte 23 Norte 0 -- -- 64
2019-02-20 02:00:00 13.8 12 Norte 28 Norte 0 -- -- 61
2019-02-20 01:00:00 13.6 17 Norte 32 Norte 0 -- -- 69
2019-02-20 00:00:00 14.2 18 Norte 32 Norte 0 -- -- 62
2019-02-19 23:00:00 13.9 22 Norte 35 Norte 0 -- -- 65
2019-02-19 22:00:00 13.7 15 Norte 32 Norte 0 -- -- 70
2019-02-19 21:00:00 14.1 15 Norte 36 Norte 0 -- -- 60
2019-02-19 20:00:00 13.8 22 Norte 36 Norte 0 -- -- 67
2019-02-19 19:00:00 14.1 16 Norte 39 Norte 0 -- -- 58
2019-02-19 18:00:00 14.9 28 Norte 50 Norte 0 -- -- 53
2019-02-19 17:00:00 16.5 30 Norte 48 Norte 0 -- -- 51
2019-02-19 16:00:00 17.6 34 Norte 55 Nordeste 0 -- -- 46
2019-02-19 15:00:00 17.7 40 Nordeste 55 Nordeste 0 -- -- 51
2019-02-19 14:00:00 18.2 34 Nordeste 49 Nordeste 0 -- -- 55
2019-02-19 13:00:00 18.3 25 Norte 43 Nordeste 0 -- -- 45
2019-02-19 12:00:00 16.5 27 Norte 44 Norte 0 -- -- 50
2019-02-19 11:00:00 16.6 21 Norte 41 Nordeste 0 -- -- 54
2019-02-19 10:00:00 14.3 23 Norte 44 Norte 0 -- -- 69
2019-02-19 09:00:00 14.3 19 Norte 37 Norte 0 -- -- 64
2019-02-19 08:00:00 13 20 Norte 33 Norte 0 -- -- 66
2019-02-19 07:00:00 12.6 22 Norte 38 Norte 0 -- -- 72
2019-02-19 06:00:00 12.7 25 Norte 39 Norte 0 -- -- 73
2019-02-19 05:00:00 12.7 23 Norte 41 Norte 0 -- -- 72
2019-02-19 04:00:00 12.8 24 Norte 39 Norte 0 -- -- 66
2019-02-19 03:00:00 13.1 27 Norte 46 Noroeste 0 -- -- 66
2019-02-19 02:00:00 12.6 23 Norte 42 Norte 0 -- -- 66
2019-02-19 01:00:00 13.1 24 Norte 40 Norte 0 -- -- 67
2019-02-19 00:00:00 12.7 18 Norte 39 Norte 0 -- -- 69
2019-02-18 23:00:00 13.2 23 Norte 36 Norte 0 -- -- 68
2019-02-18 22:00:00 12.9 21 Norte 44 Norte 0 -- -- 71
2019-02-18 21:00:00 13.4 28 Norte 44 Norte 0 -- -- 71
2019-02-18 20:00:00 13.6 26 Norte 44 Norte 0 -- -- 74
2019-02-18 19:00:00 13.5 29 Norte 45 Norte 0 -- -- 69
2019-02-18 18:00:00 14.6 23 Norte 40 Norte 0 -- -- 73
2019-02-18 17:00:00 14.9 26 Norte 42 Norte 0 -- -- 73
2019-02-18 16:00:00 14.2 26 Norte 42 Norte 0.6 -- -- 80
2019-02-18 15:00:00 15.3 22 Norte 42 Norte 0.2 -- -- 88
2019-02-18 14:00:00 14.5 24 Norte 41 Norte 1.4 -- -- 89
2019-02-18 13:00:00 14.8 24 Norte 46 Norte 1.6 -- -- 91
2019-02-18 12:00:00 16 30 Norte 47 Norte 0.2 -- -- 85
2019-02-18 11:00:00 18.1 25 Nordeste 41 Nordeste 0 -- -- 64
2019-02-18 10:00:00 19.1 20 Norte 37 Norte 0 -- -- 40
2019-02-18 09:00:00 17.3 21 Norte 39 Norte 0 -- -- 33
2019-02-18 08:00:00 14.7 20 Norte 29 Norte 0 -- -- 38
2019-02-18 07:00:00 15.3 14 Norte 41 Norte 0 -- -- 33
2019-02-18 06:00:00 15.4 28 Norte 38 Norte 0 -- -- 40
2019-02-18 05:00:00 15.1 23 Norte 35 Norte 0 -- -- 41
2019-02-18 04:00:00 15.2 19 Norte 27 Norte 0 -- -- 32
2019-02-18 03:00:00 15.4 18 Norte 27 Norte 0 -- -- 31
2019-02-18 02:00:00 15.4 14 Norte 25 Norte 0 -- -- 32
2019-02-18 01:00:00 15.7 17 Norte 27 Norte 0 -- -- 32
2019-02-18 00:00:00 16 20 Norte 28 Norte 0 -- -- 31
2019-02-17 23:00:00 16.3 20 Norte 34 Norte 0 -- -- 29
2019-02-17 22:00:00 16.4 23 Norte 38 Norte 0 -- -- 31
2019-02-17 21:00:00 16.6 22 Norte 33 Norte 0 -- -- 33
2019-02-17 20:00:00 16.8 17 Norte 27 Norte 0 -- -- 34
2019-02-17 19:00:00 17.5 18 Norte 31 Norte 0 -- -- 36
2019-02-17 18:00:00 19 18 Norte 31 Nordeste 0 -- -- 30
2019-02-17 17:00:00 20.6 21 Norte 39 Nordeste 0 -- -- 26
2019-02-17 16:00:00 21.3 22 Norte 41 Nordeste 0 -- -- 26
2019-02-17 15:00:00 21.7 27 Nordeste 40 Nordeste 0 -- -- 26
2019-02-17 14:00:00 22.5 22 Nordeste 36 Norte 0 -- -- 27
2019-02-17 13:00:00 21.5 22 Norte 40 Nordeste 0 -- -- 29
2019-02-17 12:00:00 21 24 Nordeste 43 Norte 0 -- -- 30
2019-02-17 11:00:00 20.4 26 Nordeste 42 Norte 0 -- -- 31
2019-02-17 10:00:00 19.4 24 Norte 37 Noroeste 0 -- -- 27
2019-02-17 09:00:00 17.8 24 Norte 36 Norte 0 -- -- 25
2019-02-17 08:00:00 16.4 22 Norte 35 Norte 0 -- -- 26
2019-02-17 07:00:00 16.1 22 Norte 33 Norte 0 -- -- 26
2019-02-17 06:00:00 15.8 22 Norte 35 Norte 0 -- -- 29
2019-02-17 05:00:00 16.3 21 Norte 31 Norte 0 -- -- 30
2019-02-17 04:00:00 16.2 17 Norte 32 Norte 0 -- -- 31
2019-02-17 03:00:00 16.1 20 Norte 34 Norte 0 -- -- 33
2019-02-17 02:00:00 15.9 22 Norte 41 Norte 0 -- -- 39
2019-02-17 01:00:00 16.2 21 Norte 41 Norte 0 -- -- 43
2019-02-17 00:00:00 16.4 24 Norte 45 Norte 0 -- -- 49
2019-02-16 23:00:00 16.2 26 Norte 46 Norte 0 -- -- 54
2019-02-16 22:00:00 16.6 22 Norte 41 Norte 0 -- -- 48
2019-02-16 21:00:00 16.9 26 Noroeste 44 Noroeste 0 -- -- 42
2019-02-16 20:00:00 17 22 Norte 39 Noroeste 0 -- -- 40
2019-02-16 19:00:00 17.5 22 Norte 39 Norte 0 -- -- 35
2019-02-16 18:00:00 18.7 24 Norte 39 Norte 0 -- -- 34
2019-02-16 17:00:00 20.4 15 Norte 40 Norte 0 -- -- 32
2019-02-16 16:00:00 21 22 Norte 42 Norte 0 -- -- 38
2019-02-16 15:00:00 21.1 24 Norte 53 Nordeste 0 -- -- 38
2019-02-16 14:00:00 20.7 28 Norte 48 Norte 0 -- -- 42
2019-02-16 13:00:00 19.9 26 Norte 50 Norte 0 -- -- 48
2019-02-16 12:00:00 18.7 24 Norte 41 Norte 0 -- -- 54
2019-02-16 11:00:00 18.1 27 Norte 41 Norte 0 -- -- 55
2019-02-16 10:00:00 17.1 21 Norte 34 Norte 0 -- -- 59
2019-02-16 09:00:00 15.3 19 Norte 39 Norte 0 -- -- 67
2019-02-16 08:00:00 13.6 21 Norte 33 Norte 0 -- -- 71
2019-02-16 07:00:00 13.9 18 Norte 32 Noroeste 0 -- -- 64
2019-02-16 06:00:00 13.6 11 Noroeste 24 Noroeste 0 -- -- 63
2019-02-16 05:00:00 12.1 5 Noroeste 10 Noroeste 0 -- -- 75
2019-02-16 04:00:00 12.4 2 Nordeste 16 Oeste 0 -- -- 72
2019-02-16 03:00:00 13.3 10 Oeste 21 Noroeste 0 -- -- 77
2019-02-16 02:00:00 13.3 9 Norte 17 Norte 0 -- -- 72
2019-02-16 01:00:00 13.7 5 Oeste 13 Sur 0 -- -- 68
2019-02-16 00:00:00 13.9 4 Norte 21 Oeste 0 -- -- 72
2019-02-15 23:00:00 14.6 19 Norte 49 Norte 0.2 -- -- 58
2019-02-15 22:00:00 14.3 25 Norte 41 Norte 0 -- -- 62
2019-02-15 21:00:00 14.9 10 Noroeste 34 Noroeste 0 -- -- 65
2019-02-15 20:00:00 14.9 11 Noroeste 28 Noroeste 0 -- -- 62
2019-02-15 19:00:00 15.6 3 Sudeste 14 Sudoeste 0 -- -- 67
2019-02-15 18:00:00 17.1 4 Sudoeste 17 Sudoeste 0 -- -- 66
2019-02-15 17:00:00 17.5 8 Sudoeste 15 Sur 0 -- -- 64
2019-02-15 16:00:00 17 6 Nordeste 26 Norte 0.2 -- -- 76
2019-02-15 15:00:00 16.2 19 Norte 40 Norte 0 -- -- 67
2019-02-15 14:00:00 15.9 23 Norte 35 Norte 0 -- -- 70
2019-02-15 13:00:00 15.5 19 Norte 29 Norte 0 -- -- 74
2019-02-15 12:00:00 16.5 16 Norte 30 Norte 0 -- -- 68
2019-02-15 11:00:00 17.4 10 Nordeste 21 Norte 0 -- -- 69
2019-02-15 10:00:00 17.8 10 Nordeste 17 Nordeste 0 -- -- 69
2019-02-15 09:00:00 16.5 4 Oeste 14 Sudoeste 0 -- -- 79
2019-02-15 08:00:00 15.1 8 Sudoeste 16 Sudoeste 0 -- -- 84
2019-02-15 07:00:00 15.1 9 Oeste 13 Sudoeste 0 -- -- 84
2019-02-15 06:00:00 16.1 8 Este 26 Nordeste 0 -- -- 77
2019-02-15 05:00:00 17.5 3 Oeste 12 Sudoeste 0 -- -- 32
2019-02-15 04:00:00 18.9 7 Sudoeste 21 Sudoeste 0 -- -- 26
2019-02-15 03:00:00 20.6 16 Sudoeste 30 Sudoeste 0 -- -- 23
2019-02-15 02:00:00 20.9 17 Sudoeste 35 Sudoeste 0 -- -- 22
2019-02-15 01:00:00 21.3 19 Sudoeste 35 Sudoeste 0 -- -- 22
2019-02-15 00:00:00 21.7 21 Sudoeste 40 Sudoeste 0 -- -- 21
2019-02-14 23:00:00 21.8 22 Sudoeste 36 Sudoeste 0 -- -- 21
2019-02-14 22:00:00 21.7 20 Sudoeste 33 Sudoeste 0 -- -- 20
2019-02-14 21:00:00 21.8 24 Sudoeste 44 Sudoeste 0 -- -- 21
2019-02-14 20:00:00 21.8 27 Sudoeste 48 Sudoeste 0 -- -- 22
2019-02-14 19:00:00 21.8 32 Sudoeste 50 Sudoeste 0 -- -- 24
2019-02-14 18:00:00 22.3 37 Sudoeste 52 Sudoeste 0 -- -- 24
2019-02-14 17:00:00 23.1 32 Sudoeste 48 Sur 0 -- -- 24
2019-02-14 16:00:00 23.8 33 Sudoeste 52 Sudoeste 0 -- -- 25
2019-02-14 15:00:00 24.4 35 Sur 52 Sudoeste 0 -- -- 26
2019-02-14 14:00:00 24.2 33 Sudoeste 53 Sur 0 -- -- 28
2019-02-14 13:00:00 24.1 33 Sur 51 Sudoeste 0 -- -- 28
2019-02-14 12:00:00 23.6 33 Sudoeste 52 Sudoeste 0 -- -- 30
2019-02-14 11:00:00 23.9 28 Sudoeste 51 Sudoeste 0 -- -- 25
2019-02-14 10:00:00 23.6 30 Sudoeste 51 Sudoeste 0 -- -- 23
2019-02-14 09:00:00 22.6 26 Sudoeste 45 Sudoeste 0 -- -- 21
2019-02-14 08:00:00 21.1 26 Sudoeste 41 Sudoeste 0 -- -- 17
2019-02-14 07:00:00 19.6 18 Oeste 22 Oeste 0 -- -- 16
2019-02-14 06:00:00 17.6 8 Sudoeste 15 Oeste 0 -- -- 21
2019-02-14 05:00:00 16.7 8 Oeste 12 Oeste 0 -- -- 36
2019-02-14 04:00:00 17.4 6 Sudoeste 10 Sur 0 -- -- 30
2019-02-14 03:00:00 20.2 7 Sur 25 Sudoeste 0 -- -- 28
2019-02-14 02:00:00 20.9 12 Sudoeste 28 Oeste 0 -- -- 25
2019-02-14 01:00:00 23.2 18 Sudoeste 29 Sudoeste 0 -- -- 12
2019-02-14 00:00:00 23.5 14 Sudoeste 28 Sudoeste 0 -- -- 12
2019-02-13 23:00:00 23.9 18 Oeste 28 Oeste 0 -- -- 11
2019-02-13 22:00:00 23.6 14 Sudoeste 25 Oeste 0 -- -- 12
2019-02-13 21:00:00 23.5 17 Oeste 28 Sudoeste 0 -- -- 11
2019-02-13 20:00:00 23.2 14 Sudoeste 31 Sudoeste 0 -- -- 12
2019-02-13 19:00:00 23.6 20 Sudoeste 34 Sur 0 -- -- 12
2019-02-13 18:00:00 24.2 26 Sur 35 Sur 0 -- -- 21
2019-02-13 17:00:00 26 23 Sur 38 Sur 0 -- -- 18
2019-02-13 16:00:00 26.6 24 Sur 34 Sur 0 -- -- 16
2019-02-13 15:00:00 25.6 16 Sur 28 Sudeste 0 -- -- 33
2019-02-13 14:00:00 25.4 15 Sur 24 Sudeste 0 -- -- 29
2019-02-13 13:00:00 25 16 Sur 24 Sur 0 -- -- 28
2019-02-13 12:00:00 25.3 17 Sur 26 Sur 0 -- -- 20
2019-02-13 11:00:00 24.8 13 Sur 20 Sur 0 -- -- 19
2019-02-13 10:00:00 23.3 7 Sur 12 Sur 0 -- -- 21
2019-02-13 09:00:00 20.6 2 Nordeste 9 Noroeste 0 -- -- 21
2019-02-13 08:00:00 16.6 6 Norte 17 Norte 0 -- -- 25
2019-02-13 07:00:00 16.5 8 Norte 13 Norte 0 -- -- 25
2019-02-13 06:00:00 15.4 8 Norte 11 Noroeste 0 -- -- 39
2019-02-13 05:00:00 16.1 3 Oeste 8 Sudoeste 0 -- -- 55
2019-02-13 04:00:00 18.5 5 Oeste 14 Norte 0 -- -- 18
2019-02-13 03:00:00 18.6 12 Norte 16 Norte 0 -- -- 19
2019-02-13 02:00:00 18.5 13 Norte 15 Norte 0 -- -- 18
2019-02-13 01:00:00 17.5 10 Nordeste 14 Norte 0 -- -- 20
2019-02-13 00:00:00 19.8 6 Norte 12 Norte 0 -- -- 15
2019-02-12 23:00:00 19.8 5 Noroeste 9 Noroeste 0 -- -- 15
2019-02-12 22:00:00 20.3 6 Noroeste 10 Noroeste 0 -- -- 15
2019-02-12 21:00:00 20.2 4 Norte 8 Noroeste 0 -- -- 16
2019-02-12 20:00:00 17.9 5 Norte 7 Nordeste 0 -- -- 25
2019-02-12 19:00:00 19.8 3 Nordeste 5 Nordeste 0 -- -- 59
2019-02-12 18:00:00 22.3 3 Nordeste 12 Sur 0 -- -- 52
2019-02-12 17:00:00 24.1 5 Sudeste 12 Sur 0 -- -- 43
2019-02-12 16:00:00 25.3 6 Sur 17 Sur 0 -- -- 32
2019-02-12 15:00:00 25.1 10 Sur 19 Sur 0 -- -- 35
2019-02-12 14:00:00 25.1 10 Sur 17 Sur 0 -- -- 31
2019-02-12 13:00:00 24.3 8 Este 19 Sur 0 -- -- 27
2019-02-12 12:00:00 23.9 12 Este 20 Nordeste 0 -- -- 26
2019-02-12 11:00:00 24.5 13 Nordeste 18 Este 0 -- -- 23
2019-02-12 10:00:00 23.7 3 Noroeste 12 Nordeste 0 -- -- 19
2019-02-12 09:00:00 21.3 9 Norte 21 Norte 0 -- -- 22
2019-02-12 08:00:00 19.2 10 Norte 20 Norte 0 -- -- 22
2019-02-12 07:00:00 18.5 13 Norte 21 Norte 0 -- -- 22
2019-02-12 06:00:00 19.8 12 Norte 20 Norte 0 -- -- 20
2019-02-12 05:00:00 19 9 Norte 17 Noroeste 0 -- -- 21
2019-02-12 04:00:00 19.2 8 Noroeste 15 Noroeste 0 -- -- 20
2019-02-12 03:00:00 19.8 6 Norte 15 Norte 0 -- -- 19
2019-02-12 02:00:00 20.1 9 Norte 15 Noroeste 0 -- -- 17
2019-02-12 01:00:00 19 11 Norte 16 Norte 0 -- -- 16
2019-02-12 00:00:00 19.4 14 Norte 18 Norte 0 -- -- 15
2019-02-11 23:00:00 19.5 14 Norte 21 Norte 0 -- -- 15
2019-02-11 22:00:00 20 15 Norte 20 Norte 0 -- -- 16
2019-02-11 21:00:00 20.3 12 Norte 18 Norte 0 -- -- 16
2019-02-11 20:00:00 20.3 12 Norte 15 Norte 0 -- -- 17
2019-02-11 19:00:00 20.4 6 Noroeste 9 Noroeste 0 -- -- 23
2019-02-11 18:00:00 22.8 5 Sudeste 15 Sur 0 -- -- 20
2019-02-11 17:00:00 24.1 8 Sudeste 15 Este 0 -- -- 24
2019-02-11 16:00:00 25.7 8 Sur 24 Sur 0 -- -- 19
2019-02-11 15:00:00 25.7 10 Sur 19 Sur 0 -- -- 23
2019-02-11 14:00:00 25.3 9 Sur 21 Sur 0 -- -- 20
2019-02-11 13:00:00 24.6 8 Sur 21 Sudeste 0 -- -- 23
2019-02-11 12:00:00 23.9 10 Este 17 Sudeste 0 -- -- 24
2019-02-11 11:00:00 23.3 9 Nordeste 13 Este 0 -- -- 28
2019-02-11 10:00:00 21.9 6 Este 12 Este 0 -- -- 27
2019-02-11 09:00:00 19.5 8 Nordeste 14 Norte 0 -- -- 31
2019-02-11 08:00:00 16.4 4 Noroeste 17 Norte 0 -- -- 34
2019-02-11 07:00:00 16.6 9 Noroeste 17 Norte 0 -- -- 35
2019-02-11 06:00:00 17.7 8 Norte 21 Norte 0 -- -- 36
2019-02-11 05:00:00 18 10 Norte 20 Norte 0 -- -- 32
2019-02-11 04:00:00 18.5 12 Norte 26 Norte 0 -- -- 34
2019-02-11 03:00:00 18.6 12 Norte 25 Norte 0 -- -- 32
2019-02-11 02:00:00 19.4 16 Norte 33 Norte 0 -- -- 26
2019-02-11 01:00:00 19.3 9 Norte 22 Norte 0 -- -- 22
2019-02-11 00:00:00 19.8 15 Norte 28 Norte 0 -- -- 19
2019-02-10 23:00:00 20.1 17 Norte 25 Norte 0 -- -- 17
2019-02-10 22:00:00 20.4 18 Norte 24 Norte 0 -- -- 17
2019-02-10 21:00:00 20.5 14 Norte 24 Norte 0 -- -- 16
2019-02-10 20:00:00 20 13 Norte 21 Norte 0 -- -- 17
2019-02-10 19:00:00 20.4 10 Norte 17 Norte 0 -- -- 18
2019-02-10 18:00:00 21.5 8 Nordeste 18 Nordeste 0 -- -- 36
2019-02-10 17:00:00 23.3 11 Nordeste 19 Nordeste 0 -- -- 24
2019-02-10 16:00:00 23.7 11 Este 19 Este 0 -- -- 22
2019-02-10 15:00:00 24.1 10 Nordeste 22 Nordeste 0 -- -- 24
2019-02-10 14:00:00 23.5 14 Nordeste 22 Nordeste 0 -- -- 39
2019-02-10 13:00:00 23.2 12 Este 22 Nordeste 0 -- -- 33
2019-02-10 12:00:00 23 13 Nordeste 26 Nordeste 0 -- -- 32
2019-02-10 11:00:00 22.2 13 Nordeste 25 Nordeste 0 -- -- 30
2019-02-10 10:00:00 20.8 15 Nordeste 25 Nordeste 0 -- -- 32
2019-02-10 09:00:00 19.6 13 Nordeste 28 Nordeste 0 -- -- 29
2019-02-10 08:00:00 18.3 13 Norte 27 Nordeste 0 -- -- 26
2019-02-10 07:00:00 18 17 Norte 30 Norte 0 -- -- 23
2019-02-10 06:00:00 18.4 20 Norte 33 Norte 0 -- -- 21
2019-02-10 05:00:00 17.9 19 Norte 29 Nordeste 0 -- -- 21
2019-02-10 04:00:00 16.1 22 Nordeste 37 Norte 0 -- -- 47
2019-02-10 03:00:00 18 17 Norte 26 Norte 0 -- -- 24
2019-02-10 02:00:00 18.4 18 Norte 24 Norte 0 -- -- 23
2019-02-10 01:00:00 18.2 17 Norte 24 Noroeste 0 -- -- 22
2019-02-10 00:00:00 18.2 17 Norte 22 Norte 0 -- -- 23
2019-02-09 23:00:00 17.9 15 Norte 20 Noroeste 0 -- -- 22
2019-02-09 22:00:00 17.9 15 Norte 18 Norte 0 -- -- 22
2019-02-09 21:00:00 16.5 12 Noroeste 15 Noroeste 0 -- -- 26
2019-02-09 20:00:00 14.7 8 Nordeste 14 Norte 0 -- -- 71
2019-02-09 19:00:00 15.8 8 Nordeste 10 Nordeste 0 -- -- 68
2019-02-09 18:00:00 17.5 4 Este 16 Sur 0 -- -- 66
2019-02-09 17:00:00 19.7 10 Sudeste 26 Sudeste 0 -- -- 55
2019-02-09 16:00:00 21 7 Este 18 Este 0 -- -- 46
2019-02-09 15:00:00 21.7 12 Sur 21 Sur 0 -- -- 32
2019-02-09 14:00:00 20.8 10 Sur 19 Sudeste 0 -- -- 54
2019-02-09 13:00:00 20.5 9 Sur 20 Sur 0 -- -- 57
2019-02-09 12:00:00 19.2 13 Sur 21 Sur 0 -- -- 63
2019-02-09 11:00:00 17.7 9 Sur 16 Sur 0 -- -- 66
2019-02-09 10:00:00 16.4 9 Nordeste 22 Nordeste 0 -- -- 69
2019-02-09 09:00:00 13.7 15 Norte 26 Norte 0 -- -- 78
2019-02-09 08:00:00 12 19 Norte 28 Norte 0 -- -- 82
2019-02-09 07:00:00 12 21 Norte 28 Norte 0 -- -- 83
2019-02-09 06:00:00 12.1 21 Norte 29 Norte 0 -- -- 84
2019-02-09 05:00:00 12 18 Norte 34 Norte 0 -- -- 83
2019-02-09 04:00:00 12.2 20 Norte 33 Norte 0 -- -- 82
2019-02-09 03:00:00 12.7 24 Norte 37 Norte 0 -- -- 80
2019-02-09 02:00:00 12.7 23 Norte 35 Norte 0 -- -- 80
2019-02-09 01:00:00 12.9 24 Norte 35 Norte 0 -- -- 79
2019-02-09 00:00:00 12.9 21 Norte 36 Nordeste 0 -- -- 81
2019-02-08 23:00:00 12.9 23 Norte 35 Norte 0 -- -- 81
2019-02-08 22:00:00 13.3 23 Norte 35 Norte 0 -- -- 75
2019-02-08 21:00:00 12.9 18 Norte 27 Norte 0 -- -- 81
2019-02-08 20:00:00 13.2 17 Norte 24 Norte 0 -- -- 80
2019-02-08 19:00:00 14 18 Nordeste 32 Nordeste 0 -- -- 76
2019-02-08 18:00:00 15.6 20 Nordeste 30 Nordeste 0 -- -- 70
2019-02-08 17:00:00 17.6 20 Nordeste 33 Nordeste 0 -- -- 63
2019-02-08 16:00:00 18.5 24 Nordeste 35 Nordeste 0 -- -- 60
2019-02-08 15:00:00 18.9 22 Nordeste 36 Nordeste 0 -- -- 58
2019-02-08 14:00:00 18.9 23 Nordeste 40 Nordeste 0 -- -- 58
2019-02-08 13:00:00 18.6 26 Nordeste 40 Nordeste 0 -- -- 58
2019-02-08 12:00:00 18.3 27 Nordeste 42 Nordeste 0 -- -- 59
2019-02-08 11:00:00 17.3 26 Nordeste 41 Nordeste 0 -- -- 61
2019-02-08 10:00:00 15.3 27 Norte 45 Norte 0 -- -- 70
2019-02-08 09:00:00 13.6 26 Norte 41 Norte 0 -- -- 76
2019-02-08 08:00:00 12.1 27 Norte 39 Norte 0 -- -- 81
2019-02-08 07:00:00 12.1 23 Norte 36 Norte 0 -- -- 82
2019-02-08 06:00:00 12.2 23 Norte 37 Norte 0 -- -- 81
2019-02-08 05:00:00 12.3 24 Norte 35 Norte 0 -- -- 82
2019-02-08 04:00:00 12.5 22 Norte 34 Norte 0 -- -- 81
2019-02-08 03:00:00 12.6 24 Nordeste 42 Nordeste 0 -- -- 79
2019-02-08 02:00:00 13.2 26 Norte 38 Norte 0 -- -- 79
2019-02-08 01:00:00 13.5 25 Norte 37 Norte 0 -- -- 77
2019-02-08 00:00:00 13.6 22 Norte 35 Norte 0 -- -- 79
2019-02-07 23:00:00 13.7 22 Norte 35 Nordeste 0 -- -- 80
2019-02-07 22:00:00 13.7 26 Norte 46 Norte 0 -- -- 80
2019-02-07 21:00:00 13.8 30 Norte 43 Norte 0 -- -- 80
2019-02-07 20:00:00 14 23 Norte 36 Norte 0 -- -- 80
2019-02-07 19:00:00 14.6 23 Norte 35 Nordeste 0 -- -- 77
2019-02-07 18:00:00 16.1 26 Nordeste 37 Nordeste 0 -- -- 71
2019-02-07 17:00:00 17.9 27 Nordeste 39 Norte 0 -- -- 65
2019-02-07 16:00:00 19.2 28 Nordeste 41 Norte 0 -- -- 61
2019-02-07 15:00:00 19.8 26 Nordeste 42 Nordeste 0 -- -- 59
2019-02-07 14:00:00 19.9 29 Nordeste 46 Norte 0 -- -- 59
2019-02-07 13:00:00 19.8 30 Nordeste 44 Nordeste 0 -- -- 57
2019-02-07 12:00:00 19.3 28 Nordeste 42 Nordeste 0 -- -- 58
2019-02-07 11:00:00 18.6 28 Nordeste 41 Nordeste 0 -- -- 59
2019-02-07 10:00:00 18.7 27 Nordeste 40 Nordeste 0 -- -- 41
2019-02-07 09:00:00 17.6 23 Norte 38 Norte 0 -- -- 29
2019-02-07 08:00:00 16.2 22 Norte 36 Norte 0 -- -- 29
2019-02-07 07:00:00 16.3 23 Norte 35 Norte 0 -- -- 29
2019-02-07 06:00:00 16.7 24 Norte 37 Norte 0 -- -- 29
2019-02-07 05:00:00 16.9 24 Norte 35 Nordeste 0 -- -- 28
2019-02-07 04:00:00 17.1 24 Norte 36 Norte 0 -- -- 29
2019-02-07 03:00:00 17.1 23 Norte 35 Norte 0 -- -- 30
2019-02-07 02:00:00 17.3 23 Norte 38 Norte 0 -- -- 30
2019-02-07 01:00:00 17.6 24 Norte 41 Norte 0 -- -- 29
2019-02-07 00:00:00 17.6 23 Norte 38 Norte 0 -- -- 27
2019-02-06 23:00:00 17.4 24 Norte 37 Norte 0 -- -- 30
2019-02-06 22:00:00 17.7 22 Norte 33 Norte 0 -- -- 29
2019-02-06 21:00:00 17.9 17 Norte 35 Norte 0 -- -- 27
2019-02-06 20:00:00 18 18 Norte 30 Norte 0 -- -- 25
2019-02-06 19:00:00 18 12 Norte 22 Norte 0 -- -- 19
2019-02-06 18:00:00 19.5 13 Nordeste 22 Nordeste 0 -- -- 18
2019-02-06 17:00:00 20.8 15 Nordeste 24 Nordeste 0 -- -- 26
2019-02-06 16:00:00 21.9 15 Nordeste 25 Este 0 -- -- 36
2019-02-06 15:00:00 22.3 12 Nordeste 24 Este 0 -- -- 35
2019-02-06 14:00:00 21.8 15 Este 23 Este 0 -- -- 33
2019-02-06 13:00:00 21.6 13 Nordeste 24 Este 0 -- -- 31
2019-02-06 12:00:00 21.2 11 Nordeste 20 Nordeste 0 -- -- 42
2019-02-06 11:00:00 20.4 11 Nordeste 21 Nordeste 0 -- -- 39
2019-02-06 10:00:00 19 12 Nordeste 20 Nordeste 0 -- -- 41
2019-02-06 09:00:00 16.8 10 Norte 21 Norte 0 -- -- 40
2019-02-06 08:00:00 14.9 13 Norte 21 Norte 0 -- -- 37
2019-02-06 07:00:00 15.4 14 Norte 28 Norte 0 -- -- 36
2019-02-06 06:00:00 15.8 17 Norte 32 Nordeste 0 -- -- 33
2019-02-06 05:00:00 16.1 17 Norte 30 Norte 0 -- -- 33
2019-02-06 04:00:00 16.4 18 Norte 31 Norte 0 -- -- 33
2019-02-06 03:00:00 16 12 Norte 27 Nordeste 0 -- -- 36
2019-02-06 02:00:00 16.3 12 Norte 23 Norte 0 -- -- 30
2019-02-06 01:00:00 17 14 Norte 25 Norte 0 -- -- 26
2019-02-06 00:00:00 17 15 Norte 28 Norte 0 -- -- 23
2019-02-05 23:00:00 16.2 14 Norte 24 Noroeste 0 -- -- 23
2019-02-05 22:00:00 16.9 16 Norte 22 Norte 0 -- -- 21
2019-02-05 21:00:00 17.4 10 Norte 20 Norte 0 -- -- 19
2019-02-05 20:00:00 16.5 11 Norte 18 Norte 0 -- -- 21
2019-02-05 19:00:00 16.7 3 Norte 8 Noroeste 0 -- -- 24
2019-02-05 18:00:00 18.5 3 Nordeste 12 Nordeste 0 -- -- 20
2019-02-05 17:00:00 20 6 Este 18 Este 0 -- -- 20
2019-02-05 16:00:00 21.2 7 Este 22 Sudeste 0 -- -- 19
2019-02-05 15:00:00 21.4 11 Sur 32 Sudeste 0 -- -- 21
2019-02-05 14:00:00 21.2 9 Sudeste 32 Sur 0 -- -- 25
2019-02-05 13:00:00 21.4 14 Sur 26 Sur 0 -- -- 22
2019-02-05 12:00:00 21 10 Sur 22 Sur 0 -- -- 28
2019-02-05 11:00:00 20.2 9 Sudeste 21 Sur 0 -- -- 31
2019-02-05 10:00:00 19.6 7 Sur 23 Sur 0 -- -- 30
2019-02-05 09:00:00 17.4 11 Sudoeste 21 Sudoeste 0 -- -- 35
2019-02-05 08:00:00 16 10 Sudoeste 22 Sudoeste 0 -- -- 39
2019-02-05 07:00:00 16.4 9 Sudoeste 20 Sudoeste 0 -- -- 36
2019-02-05 06:00:00 16.7 11 Sudoeste 22 Sur 0 -- -- 34
2019-02-05 05:00:00 16.9 13 Sudoeste 23 Sudoeste 0 -- -- 32
2019-02-05 04:00:00 16.2 6 Sudoeste 17 Sudoeste 0 -- -- 34
2019-02-05 03:00:00 16.7 4 Oeste 21 Oeste 0 -- -- 33
2019-02-05 02:00:00 16.9 10 Sudoeste 23 Sudoeste 0 -- -- 36
2019-02-05 01:00:00 15.9 4 Norte 12 Noroeste 0 -- -- 42
2019-02-05 00:00:00 15.9 9 Norte 12 Norte 0 -- -- 35
2019-02-04 23:00:00 16.5 8 Norte 11 Norte 0 -- -- 30
2019-02-04 22:00:00 17.9 3 Este 8 Este 0 -- -- 28
2019-02-04 21:00:00 18.7 0 Calma 13 Noroeste 0 -- -- 25
2019-02-04 20:00:00 18.8 5 Oeste 17 Sudoeste 0 -- -- 25
2019-02-04 19:00:00 19.5 6 Oeste 18 Oeste 0 -- -- 25
2019-02-04 18:00:00 20.1 7 Sudoeste 17 Este 0 -- -- 29
2019-02-04 17:00:00 20.1 6 Este 17 Este 0 -- -- 46
2019-02-04 16:00:00 21.1 10 Nordeste 15 Este 0 -- -- 51
2019-02-04 15:00:00 22.1 7 Sur 19 Sur 0 -- -- 30
2019-02-04 14:00:00 22.5 9 Sur 19 Sur 0 -- -- 36
2019-02-04 13:00:00 21.5 8 Este 17 Este 0 -- -- 42
2019-02-04 12:00:00 21.5 10 Nordeste 17 Nordeste 0 -- -- 48
2019-02-04 11:00:00 19.8 6 Noroeste 21 Nordeste 0 -- -- 43
2019-02-04 10:00:00 18.7 9 Nordeste 27 Norte 0 -- -- 54
2019-02-04 09:00:00 15.9 21 Norte 45 Norte 0 -- -- 66
2019-02-04 08:00:00 13.5 28 Norte 45 Norte 0 -- -- 79
2019-02-04 07:00:00 13.3 33 Norte 53 Norte 0 -- -- 78
2019-02-04 06:00:00 13.4 35 Norte 54 Norte 0 -- -- 77
2019-02-04 05:00:00 13.3 36 Norte 57 Norte 0 -- -- 74
2019-02-04 04:00:00 13.2 36 Norte 56 Norte 0 -- -- 74
2019-02-04 03:00:00 13.4 36 Norte 55 Norte 0 -- -- 73
2019-02-04 02:00:00 15.1 31 Norte 57 Norte 0 -- -- 54
2019-02-04 01:00:00 13.9 37 Norte 70 Norte 0 -- -- 70
2019-02-04 00:00:00 13.9 36 Norte 63 Norte 0 -- -- 70
2019-02-03 23:00:00 13.9 37 Norte 67 Norte 0 -- -- 70
2019-02-03 22:00:00 14.3 44 Norte 68 Norte 0 -- -- 68
2019-02-03 21:00:00 14.3 41 Norte 69 Norte 0 -- -- 67
2019-02-03 20:00:00 14.6 40 Norte 67 Norte 0 -- -- 62
2019-02-03 19:00:00 15.1 47 Norte 75 Norte 0 -- -- 60
2019-02-03 18:00:00 15.4 42 Norte 74 Norte 0 -- -- 66
2019-02-03 17:00:00 16.6 45 Norte 69 Norte 0 -- -- 64
2019-02-03 16:00:00 17.4 46 Norte 76 Norte 0 -- -- 60
2019-02-03 15:00:00 17.8 49 Norte 78 Norte 0 -- -- 57
2019-02-03 14:00:00 18.2 46 Norte 74 Norte 0 -- -- 55
2019-02-03 13:00:00 17.9 48 Norte 72 Norte 0 -- -- 56
2019-02-03 12:00:00 17.5 46 Norte 74 Norte 0 -- -- 58
2019-02-03 11:00:00 16.4 44 Norte 64 Norte 0 -- -- 59
2019-02-03 10:00:00 15.1 40 Norte 58 Norte 0 -- -- 66
2019-02-03 09:00:00 14.2 33 Norte 62 Norte 0 -- -- 68
2019-02-03 08:00:00 13.9 37 Norte 64 Norte 0 -- -- 67
2019-02-03 07:00:00 13.6 36 Norte 58 Norte 0 -- -- 69
2019-02-03 06:00:00 13.6 35 Norte 66 Norte 0 -- -- 73
2019-02-03 05:00:00 13.8 34 Norte 57 Norte 0 -- -- 68
2019-02-03 04:00:00 13.7 34 Norte 55 Norte 0 -- -- 79
2019-02-03 03:00:00 14 32 Norte 57 Norte 0 -- -- 65
2019-02-03 02:00:00 14.1 35 Norte 57 Norte 0 -- -- 71
2019-02-03 01:00:00 14.1 35 Norte 55 Norte 0 -- -- 71
2019-02-03 00:00:00 13.9 29 Norte 52 Norte 0 -- -- 70
2019-02-02 23:00:00 14.1 33 Norte 53 Norte 0 -- -- 76
2019-02-02 22:00:00 14.4 24 Norte 47 Norte 0 -- -- 69
2019-02-02 21:00:00 14.3 27 Norte 45 Norte 0 -- -- 66
2019-02-02 20:00:00 14.3 29 Norte 55 Norte 0 -- -- 64
2019-02-02 19:00:00 14.3 45 Norte 69 Norte 0 -- -- 70
2019-02-02 18:00:00 14.6 47 Norte 75 Norte 0 -- -- 67
2019-02-02 17:00:00 16 45 Norte 68 Norte 0 -- -- 59
2019-02-02 16:00:00 16.7 41 Norte 61 Nordeste 0 -- -- 59
2019-02-02 15:00:00 17.4 35 Norte 58 Nordeste 0 -- -- 61
2019-02-02 14:00:00 17.8 33 Norte 53 Nordeste 0 -- -- 57
2019-02-02 13:00:00 17.1 26 Norte 53 Norte 0 -- -- 63
2019-02-02 12:00:00 15.4 36 Norte 53 Norte 0 -- -- 69
2019-02-02 11:00:00 15.2 23 Norte 35 Nordeste 0 -- -- 73
2019-02-02 10:00:00 14.4 19 Norte 44 Norte 0 -- -- 77
2019-02-02 09:00:00 13.5 22 Norte 38 Norte 0 -- -- 80
2019-02-02 08:00:00 13.2 24 Norte 41 Norte 0.2 -- -- 83
2019-02-02 07:00:00 13.2 22 Norte 38 Norte 1 -- -- 92
2019-02-02 06:00:00 13.4 29 Norte 42 Norte 0 -- -- 91
2019-02-02 05:00:00 13.5 25 Norte 38 Norte 0.2 -- -- 92
2019-02-02 04:00:00 13.9 22 Norte 43 Norte 1.6 -- -- 93
2019-02-02 03:00:00 15 25 Norte 38 Norte 2.2 -- -- 93
2019-02-02 02:00:00 15.7 19 Norte 29 Norte 0 -- -- 86
2019-02-02 01:00:00 16.1 7 Nordeste 17 Nordeste 0 -- -- 79
2019-02-02 00:00:00 16.1 7 Noroeste 31 Norte 0 -- -- 75
2019-02-01 23:00:00 17 18 Norte 30 Norte 0 -- -- 70
2019-02-01 22:00:00 16.7 16 Noroeste 28 Norte 0 -- -- 68
2019-02-01 21:00:00 14.8 2 Sudoeste 9 Sudoeste 0 -- -- 73
2019-02-01 20:00:00 15.7 4 Sur 15 Sur 0 -- -- 70
2019-02-01 19:00:00 16.8 9 Sur 18 Sur 0 -- -- 66
2019-02-01 18:00:00 18.4 13 Sur 23 Sudeste 0 -- -- 60
2019-02-01 17:00:00 20.2 17 Sur 28 Sur 0 -- -- 54
2019-02-01 16:00:00 20.6 11 Sur 25 Sur 0 -- -- 54
2019-02-01 15:00:00 20.5 16 Sudeste 27 Sur 0 -- -- 53
2019-02-01 14:00:00 20.2 10 Sur 27 Sur 0 -- -- 54
2019-02-01 13:00:00 21.2 13 Sur 26 Sudeste 0 -- -- 50
2019-02-01 12:00:00 20.3 10 Sur 22 Sur 0 -- -- 50
2019-02-01 11:00:00 19 7 Oeste 26 Sudoeste 0 -- -- 53
2019-02-01 10:00:00 17.6 5 Sudeste 10 Nordeste 0 -- -- 57
2019-02-01 09:00:00 15 3 Noroeste 16 Norte 0 -- -- 63
2019-02-01 08:00:00 12.1 9 Noroeste 19 Norte 0 -- -- 71
2019-02-01 07:00:00 13 12 Noroeste 21 Norte 0 -- -- 67
2019-02-01 06:00:00 13.2 13 Norte 21 Norte 0 -- -- 67
2019-02-01 05:00:00 13.8 13 Norte 26 Norte 0 -- -- 66
2019-02-01 04:00:00 14 14 Norte 35 Norte 0 -- -- 65
2019-02-01 03:00:00 14.5 11 Norte 21 Norte 0 -- -- 64
2019-02-01 02:00:00 14.9 9 Norte 24 Norte 0 -- -- 64
2019-02-01 01:00:00 14.8 16 Norte 29 Norte 0 -- -- 65
2019-02-01 00:00:00 14.9 19 Norte 35 Norte 0 -- -- 65
2019-01-31 23:00:00 15 18 Norte 31 Norte 0 -- -- 65
2019-01-31 22:00:00 14.9 18 Norte 31 Norte 0 -- -- 66
2019-01-31 21:00:00 15 14 Norte 28 Norte 0 -- -- 63
2019-01-31 20:00:00 15 15 Norte 27 Norte 0 -- -- 66
2019-01-31 19:00:00 15.5 10 Norte 19 Norte 0 -- -- 65
2019-01-31 18:00:00 16.7 12 Sur 26 Oeste 0 -- -- 68
2019-01-31 17:00:00 17.6 19 Norte 41 Norte 0 -- -- 63
2019-01-31 16:00:00 19.3 27 Norte 43 Nordeste 0 -- -- 55
2019-01-31 15:00:00 19.5 30 Norte 43 Nordeste 0 -- -- 57
2019-01-31 14:00:00 19.6 28 Norte 47 Norte 0 -- -- 53
2019-01-31 13:00:00 19.9 25 Norte 49 Nordeste 0 -- -- 52
2019-01-31 12:00:00 19.1 21 Norte 40 Norte 0 -- -- 57
2019-01-31 11:00:00 17.5 24 Norte 38 Norte 0 -- -- 56
2019-01-31 10:00:00 15.1 23 Norte 44 Norte 0 -- -- 63
2019-01-31 09:00:00 14.2 24 Norte 39 Norte 0 -- -- 65
2019-01-31 08:00:00 13.8 19 Norte 42 Norte 0 -- -- 68
2019-01-31 07:00:00 13.4 19 Norte 41 Norte 0 -- -- 66
2019-01-31 06:00:00 13.2 20 Norte 28 Norte 0 -- -- 71
2019-01-31 05:00:00 13.7 17 Norte 32 Norte 0 -- -- 71
2019-01-31 04:00:00 13.7 14 Norte 40 Norte 0 -- -- 70
2019-01-31 03:00:00 13.4 19 Norte 42 Norte 0 -- -- 72
2019-01-31 02:00:00 13.5 26 Norte 50 Norte 0 -- -- 72
2019-01-31 01:00:00 14 28 Norte 52 Norte 0 -- -- 71
2019-01-31 00:00:00 13.8 36 Norte 53 Norte 0 -- -- 70
2019-01-30 23:00:00 13.9 31 Norte 56 Norte 0 -- -- 69
2019-01-30 22:00:00 14.1 39 Norte 56 Norte 0 -- -- 68
2019-01-30 21:00:00 14.4 28 Norte 47 Norte 0 -- -- 72
2019-01-30 20:00:00 14.7 23 Norte 50 Norte 0 -- -- 70
2019-01-30 19:00:00 14.9 31 Norte 47 Norte 0 -- -- 66
2019-01-30 18:00:00 15.8 32 Norte 53 Norte 0 -- -- 68
2019-01-30 17:00:00 17.3 36 Norte 54 Norte 0 -- -- 64
2019-01-30 16:00:00 18.8 38 Norte 55 Norte 0 -- -- 58
2019-01-30 15:00:00 19.1 36 Norte 60 Norte 0 -- -- 58
2019-01-30 14:00:00 19.2 38 Norte 60 Norte 0 -- -- 54
2019-01-30 13:00:00 19.3 36 Norte 54 Norte 0 -- -- 59
2019-01-30 12:00:00 18.4 37 Norte 61 Norte 0 -- -- 57
2019-01-30 11:00:00 17 30 Norte 46 Norte 0 -- -- 61
2019-01-30 10:00:00 15.4 25 Norte 42 Norte 0 -- -- 69
2019-01-30 09:00:00 14.8 30 Norte 49 Norte 0 -- -- 70
2019-01-30 08:00:00 14.4 25 Norte 53 Norte 0 -- -- 71
2019-01-30 07:00:00 14.4 25 Norte 47 Norte 0 -- -- 72
2019-01-30 06:00:00 14.4 31 Norte 55 Norte 0 -- -- 76
2019-01-30 05:00:00 14.4 33 Norte 59 Norte 0 -- -- 76
2019-01-30 04:00:00 14 36 Norte 54 Nordeste 0 -- -- 76
2019-01-30 03:00:00 13.7 29 Norte 48 Norte 0 -- -- 84
2019-01-30 02:00:00 14.1 22 Norte 48 Nordeste 0 -- -- 81
2019-01-30 01:00:00 13.7 29 Nordeste 43 Nordeste 0 -- -- 85
2019-01-30 00:00:00 13.9 23 Norte 41 Nordeste 0 -- -- 85
2019-01-29 23:00:00 14.3 27 Norte 49 Nordeste 0 -- -- 85
2019-01-29 22:00:00 15.1 23 Nordeste 44 Norte 0 -- -- 77
2019-01-29 21:00:00 15.6 27 Norte 43 Norte 0 -- -- 73
2019-01-29 20:00:00 15.1 28 Norte 47 Norte 0 -- -- 78
2019-01-29 19:00:00 15.2 31 Norte 49 Nordeste 0 -- -- 79
2019-01-29 18:00:00 16.2 32 Norte 60 Nordeste 0 -- -- 71
2019-01-29 17:00:00 17.6 35 Norte 63 Norte 0 -- -- 64
2019-01-29 16:00:00 18.5 37 Norte 58 Nordeste 0 -- -- 65
2019-01-29 15:00:00 19.1 40 Norte 57 Norte 0 -- -- 57
2019-01-29 14:00:00 19.1 35 Norte 61 Nordeste 0 -- -- 59
2019-01-29 13:00:00 18.6 42 Norte 59 Norte 0 -- -- 59
2019-01-29 12:00:00 18.5 41 Norte 63 Norte 0 -- -- 61
2019-01-29 11:00:00 16.8 36 Norte 57 Norte 0 -- -- 70
2019-01-29 10:00:00 16.4 37 Norte 60 Norte 0 -- -- 68
2019-01-29 09:00:00 15.2 33 Norte 52 Nordeste 0 -- -- 73
2019-01-29 08:00:00 13.9 30 Norte 49 Nordeste 0 -- -- 76
2019-01-29 07:00:00 14.2 30 Norte 49 Norte 0 -- -- 73
2019-01-29 06:00:00 14.3 32 Norte 52 Norte 0 -- -- 71
2019-01-29 05:00:00 16.2 23 Norte 52 Norte 0 -- -- 49
2019-01-29 04:00:00 17.1 27 Norte 44 Norte 0 -- -- 37
2019-01-29 03:00:00 13.6 5 Sudoeste 34 Norte 0 -- -- 69
2019-01-29 02:00:00 16.2 9 Norte 43 Norte 0 -- -- 40
2019-01-29 01:00:00 17.4 26 Norte 62 Norte 0 -- -- 35
2019-01-29 00:00:00 14.2 42 Norte 64 Norte 0 -- -- 72
2019-01-28 23:00:00 14 39 Norte 64 Norte 0 -- -- 72
2019-01-28 22:00:00 14.2 40 Norte 60 Norte 0 -- -- 73
2019-01-28 21:00:00 14.1 41 Norte 59 Norte 0 -- -- 72
2019-01-28 20:00:00 14.3 37 Norte 57 Norte 0 -- -- 73
2019-01-28 19:00:00 14.9 43 Norte 70 Norte 0 -- -- 69
2019-01-28 18:00:00 15.5 45 Norte 72 Norte 0 -- -- 67
2019-01-28 17:00:00 16.5 42 Norte 71 Norte 0 -- -- 64
2019-01-28 16:00:00 17.7 42 Norte 68 Norte 0 -- -- 60
2019-01-28 15:00:00 18.5 48 Norte 66 Norte 0 -- -- 59
2019-01-28 14:00:00 19.3 39 Norte 63 Norte 0 -- -- 58
2019-01-28 13:00:00 18.8 40 Norte 64 Norte 0 -- -- 57
2019-01-28 12:00:00 18.3 42 Norte 57 Norte 0 -- -- 58
2019-01-28 11:00:00 17.5 34 Norte 51 Nordeste 0 -- -- 63
2019-01-28 10:00:00 17 31 Norte 52 Norte 0 -- -- 66
2019-01-28 09:00:00 15.7 28 Norte 49 Norte 0 -- -- 66
2019-01-28 08:00:00 15.1 26 Norte 45 Norte 0 -- -- 73
2019-01-28 07:00:00 14.9 24 Norte 40 Norte 0 -- -- 74
2019-01-28 06:00:00 14.5 22 Norte 44 Norte 0 -- -- 71
2019-01-28 05:00:00 14.3 24 Norte 42 Norte 0 -- -- 79
2019-01-28 04:00:00 14.7 24 Nordeste 42 Norte 0 -- -- 76
2019-01-28 03:00:00 14.8 23 Norte 39 Norte 0 -- -- 73
2019-01-28 02:00:00 15.3 21 Norte 36 Norte 0 -- -- 70
2019-01-28 01:00:00 15.3 25 Norte 41 Norte 0 -- -- 68
2019-01-28 00:00:00 15.4 24 Norte 46 Norte 0 -- -- 66
2019-01-27 23:00:00 15.3 26 Norte 45 Norte 0 -- -- 65
2019-01-27 22:00:00 15.3 27 Norte 42 Norte 0 -- -- 66
2019-01-27 21:00:00 15.3 27 Norte 41 Norte 0 -- -- 76
2019-01-27 20:00:00 15.2 21 Norte 34 Nordeste 0 -- -- 73
2019-01-27 19:00:00 16 22 Norte 39 Norte 0 -- -- 69
2019-01-27 18:00:00 16.2 27 Norte 40 Norte 0 -- -- 68
2019-01-27 17:00:00 18.7 28 Nordeste 42 Nordeste 0 -- -- 59
2019-01-27 16:00:00 19.5 29 Nordeste 47 Nordeste 0 -- -- 54
2019-01-27 15:00:00 20 32 Nordeste 45 Nordeste 0 -- -- 54
2019-01-27 14:00:00 20.5 28 Nordeste 45 Nordeste 0 -- -- 51
2019-01-27 13:00:00 20.1 28 Nordeste 43 Nordeste 0 -- -- 49
2019-01-27 12:00:00 19.6 23 Nordeste 39 Norte 0 -- -- 59
2019-01-27 11:00:00 16.9 21 Norte 39 Nordeste 0 -- -- 64
2019-01-27 10:00:00 17.4 21 Nordeste 33 Norte 0 -- -- 68
2019-01-27 09:00:00 15.3 13 Norte 39 Norte 0 -- -- 67
2019-01-27 08:00:00 14.6 28 Norte 41 Norte 0 -- -- 72
2019-01-27 07:00:00 13 18 Nordeste 31 Nordeste 0 -- -- 79
2019-01-27 06:00:00 13 13 Norte 18 Norte 0 -- -- 72
2019-01-27 05:00:00 12.3 9 Noroeste 14 Norte 0 -- -- 78
2019-01-27 04:00:00 12 11 Norte 13 Norte 0 -- -- 72
2019-01-27 03:00:00 12.3 10 Noroeste 15 Noroeste 0 -- -- 72
2019-01-27 02:00:00 12.9 12 Norte 19 Norte 0 -- -- 72
2019-01-27 01:00:00 13.4 14 Norte 20 Norte 0 -- -- 70
2019-01-27 00:00:00 13.6 15 Norte 21 Norte 0 -- -- 71
2019-01-26 23:00:00 13.9 14 Norte 21 Norte 0 -- -- 72
2019-01-26 22:00:00 14.1 14 Norte 22 Norte 0 -- -- 75
2019-01-26 21:00:00 14.3 12 Norte 19 Norte 0 -- -- 77
2019-01-26 20:00:00 15.2 12 Norte 19 Norte 0 -- -- 83
2019-01-26 19:00:00 15.5 12 Nordeste 23 Nordeste 0 -- -- 81
2019-01-26 18:00:00 15.9 14 Nordeste 26 Nordeste 0 -- -- 79
2019-01-26 17:00:00 16.7 16 Nordeste 28 Nordeste 0 -- -- 77
2019-01-26 16:00:00 17.6 17 Nordeste 32 Nordeste 0 -- -- 72
2019-01-26 15:00:00 17.1 15 Nordeste 25 Nordeste 0 -- -- 78
2019-01-26 14:00:00 18.1 12 Nordeste 19 Nordeste 0 -- -- 71
2019-01-26 13:00:00 17.2 12 Nordeste 21 Nordeste 0 -- -- 73
2019-01-26 12:00:00 18.2 11 Nordeste 22 Este 0 -- -- 68
2019-01-26 11:00:00 19.6 12 Nordeste 21 Nordeste 0 -- -- 62
2019-01-26 10:00:00 18.3 10 Nordeste 16 Nordeste 0 -- -- 64
2019-01-26 09:00:00 14.8 4 Nordeste 10 Nordeste 0 -- -- 66
2019-01-26 08:00:00 11.8 6 Nordeste 12 Nordeste 0 -- -- 76
2019-01-26 07:00:00 11.6 5 Noroeste 8 Noroeste 0 -- -- 78
2019-01-26 06:00:00 11.9 4 Norte 9 Noroeste 0 -- -- 77
2019-01-26 05:00:00 12.8 5 Noroeste 10 Noroeste 0 -- -- 75
2019-01-26 04:00:00 12.7 9 Norte 13 Norte 0 -- -- 77
2019-01-26 03:00:00 12.6 10 Norte 13 Norte 0 -- -- 76
2019-01-26 02:00:00 13.3 8 Norte 10 Norte 0 -- -- 76
2019-01-26 01:00:00 13.2 5 Noroeste 7 Noroeste 0 -- -- 78
2019-01-26 00:00:00 13.4 6 Oeste 16 Norte 0 -- -- 78
2019-01-25 23:00:00 14.4 12 Norte 24 Norte 0 -- -- 73
2019-01-25 22:00:00 14.4 12 Norte 23 Norte 0 -- -- 76
2019-01-25 21:00:00 14.8 14 Norte 22 Norte 0 -- -- 77
2019-01-25 20:00:00 15.3 5 Norte 15 Nordeste 0 -- -- 78
2019-01-25 19:00:00 15.5 10 Nordeste 20 Nordeste 0 -- -- 82
2019-01-25 18:00:00 16.5 12 Nordeste 22 Nordeste 0 -- -- 80
2019-01-25 17:00:00 17 15 Nordeste 26 Nordeste 0 -- -- 77
2019-01-25 16:00:00 17.8 13 Nordeste 27 Nordeste 0 -- -- 74
2019-01-25 15:00:00 18.4 18 Nordeste 28 Este 0 -- -- 71
2019-01-25 14:00:00 20.1 21 Nordeste 32 Nordeste 0 -- -- 65
2019-01-25 13:00:00 20.6 20 Nordeste 31 Nordeste 0 -- -- 62
2019-01-25 12:00:00 20.3 16 Nordeste 29 Nordeste 0 -- -- 59
2019-01-25 11:00:00 18.7 17 Nordeste 26 Nordeste 0 -- -- 66
2019-01-25 10:00:00 17 16 Nordeste 26 Nordeste 0 -- -- 75
2019-01-25 09:00:00 13.9 3 Norte 9 Oeste 0 -- -- 82
2019-01-25 08:00:00 13.7 8 Oeste 16 Oeste 0 -- -- 79
2019-01-25 07:00:00 13.8 2 Noroeste 10 Noroeste 0 -- -- 83
2019-01-25 06:00:00 14.1 6 Noroeste 17 Norte 0 -- -- 81
2019-01-25 05:00:00 14.3 5 Sudeste 18 Norte 0 -- -- 78
2019-01-25 04:00:00 14.4 10 Norte 23 Norte 0 -- -- 78
2019-01-25 03:00:00 14.5 15 Norte 26 Norte 0 -- -- 79
2019-01-25 02:00:00 14.5 16 Norte 26 Norte 0 -- -- 79
2019-01-25 01:00:00 14.4 13 Norte 28 Noroeste 0 -- -- 79
2019-01-25 00:00:00 14.9 21 Norte 28 Norte 0 -- -- 78
2019-01-24 23:00:00 15.5 12 Norte 27 Norte 0 -- -- 68
2019-01-24 22:00:00 15.5 13 Norte 41 Norte 0 -- -- 65
2019-01-24 21:00:00 15.2 24 Norte 39 Norte 0 -- -- 67
2019-01-24 20:00:00 15.3 23 Norte 44 Norte 0 -- -- 63
2019-01-24 19:00:00 14.7 21 Norte 35 Norte 0 -- -- 67
2019-01-24 18:00:00 15.2 26 Norte 44 Norte 0 -- -- 68
2019-01-24 17:00:00 17.3 26 Norte 37 Noroeste 0 -- -- 61
2019-01-24 16:00:00 17.4 25 Norte 49 Norte 0 -- -- 54
2019-01-24 15:00:00 17.1 36 Norte 51 Norte 0 -- -- 61
2019-01-24 14:00:00 20 21 Norte 39 Norte 0 -- -- 53
2019-01-24 13:00:00 17.5 22 Norte 35 Norte 0 -- -- 59
2019-01-24 12:00:00 16.1 24 Norte 35 Norte 0 -- -- 71
2019-01-24 11:00:00 16.2 15 Norte 30 Norte 0 -- -- 65
2019-01-24 10:00:00 14.8 16 Norte -- -- -- -- -- 73
2019-01-24 09:00:00 13.4 19 Norte 38 Norte 0 -- -- 84
2019-01-24 08:00:00 13.2 21 Norte 42 Norte 0 -- -- 84
2019-01-24 07:00:00 13.1 20 Norte 38 Norte 0.2 -- -- 88
2019-01-24 06:00:00 13.3 27 Norte 41 Norte 0 -- -- 83
2019-01-24 05:00:00 14.5 16 Nordeste 39 Norte 0 -- -- 72
2019-01-24 04:00:00 14 25 Norte 42 Norte 0 -- -- 74
2019-01-24 03:00:00 14 21 Norte 39 Norte 0 -- -- 69
2019-01-24 02:00:00 14.2 14 Nordeste 31 Noroeste 0 -- -- 68
2019-01-24 01:00:00 13.4 17 Norte 30 Norte 0 -- -- 75
2019-01-24 00:00:00 14 17 Norte 35 Norte 0 -- -- 72